Terminal Aerodrome Forecast
Issued by NWS Blacksburg, VA

Home | Current Version | Previous Version | Text Only | Print | Product List | Glossary On
Versions: 1 2 3 4 5 6 7 8 9 10 11 12 13 14 15 16 17 18 19 20 21 22 23 24
000
FTUS41 KRNK 221422 AAA
TAFLYH
TAF AMD
KLYH 221422Z 2214/2312 21005KT P6SM BKN007 BKN015
     FM221600 21005KT P6SM SCT030 BKN120
     FM221900 22006KT P6SM VCTS SCT030 BKN070CB
      TEMPO 2220/2221 5SM TSRA BR OVC030CB
     FM230500 21005KT P6SM SCT040 BKN100
     FM230800 22003KT 3SM BR BKN004=

USA.gov is the U.S. government's official web portal to all federal, state and local government web resources and services.